METAR Data
IDs: Format: Raw Decoded Include TAF

Data at: 0229 UTC 24 Oct 2019

METAR for:KDVN (Davenport Muni, IA, US)
Text:KDVN 240218Z AUTO 35010KT 10SM FEW009 OVC085 07/05 A2999 RMK AO2 T00720050
Temperature: 7.2°C ( 45°F)
Dewpoint: 5.0°C ( 41°F) [RH = 86%]
Pressure (altimeter):29.99 inches Hg (1015.7 mb)
Winds:from the N (350 degrees) at 12 MPH (10 knots; 5.1 m/s)
Visibility:10 or more sm (16+ km)
Ceiling:8500 feet AGL
Clouds: few clouds at 900 feet AGL, overcast cloud deck at 8500 feet AGL
QC Flag:automated observation with no human augmentation